sensor_id;sensor_type;location;lat;lon;timestamp;pressure;altitude;pressure_sealevel;temperature;humidity
62928;BME280;51070;52.236;-0.892;2023-03-26T00:01:29;99438.93;;;9.31;85.65
62928;BME280;51070;52.236;-0.892;2023-03-26T00:03:58;99439.77;;;9.29;85.70
62928;BME280;51070;52.236;-0.892;2023-03-26T00:06:26;99442.52;;;9.28;85.69
62928;BME280;51070;52.236;-0.892;2023-03-26T00:08:54;99442.31;;;9.26;85.76
62928;BME280;51070;52.236;-0.892;2023-03-26T00:11:23;99436.11;;;9.26;85.94
62928;BME280;51070;52.236;-0.892;2023-03-26T00:13:49;99432.46;;;9.25;86.05
62928;BME280;51070;52.236;-0.892;2023-03-26T00:16:19;99426.27;;;9.25;86.45
62928;BME280;51070;52.236;-0.892;2023-03-26T00:18:45;99419.93;;;9.27;86.54
62928;BME280;51070;52.236;-0.892;2023-03-26T00:21:14;99415.63;;;9.28;86.49
62928;BME280;51070;52.236;-0.892;2023-03-26T00:23:40;99413.73;;;9.28;86.55
62928;BME280;51070;52.236;-0.892;2023-03-26T00:26:06;99409.90;;;9.26;86.57
62928;BME280;51070;52.236;-0.892;2023-03-26T00:28:35;99408.14;;;9.24;86.51
62928;BME280;51070;52.236;-0.892;2023-03-26T00:31:02;99403.62;;;9.21;86.76
62928;BME280;51070;52.236;-0.892;2023-03-26T00:33:28;99402.53;;;9.19;86.83
62928;BME280;51070;52.236;-0.892;2023-03-26T00:35:57;99409.07;;;9.17;87.14
62928;BME280;51070;52.236;-0.892;2023-03-26T00:38:27;99407.15;;;9.16;87.05
62928;BME280;51070;52.236;-0.892;2023-03-26T00:40:53;99400.22;;;9.14;87.39
62928;BME280;51070;52.236;-0.892;2023-03-26T00:43:20;99395.23;;;9.14;87.54
62928;BME280;51070;52.236;-0.892;2023-03-26T00:45:51;99390.77;;;9.15;87.27
62928;BME280;51070;52.236;-0.892;2023-03-26T00:48:19;99394.25;;;9.17;87.52
62928;BME280;51070;52.236;-0.892;2023-03-26T00:50:46;99391.13;;;9.16;87.08
62928;BME280;51070;52.236;-0.892;2023-03-26T00:53:13;99392.70;;;9.17;87.40
62928;BME280;51070;52.236;-0.892;2023-03-26T00:55:44;99391.52;;;9.20;87.46
62928;BME280;51070;52.236;-0.892;2023-03-26T00:58:10;99392.57;;;9.20;87.54
62928;BME280;51070;52.236;-0.892;2023-03-26T01:00:42;99387.90;;;9.19;87.86
62928;BME280;51070;52.236;-0.892;2023-03-26T01:03:13;99387.54;;;9.18;87.57
62928;BME280;51070;52.236;-0.892;2023-03-26T01:05:48;99387.30;;;9.15;87.51
62928;BME280;51070;52.236;-0.892;2023-03-26T01:10:45;99379.30;;;9.10;87.49
62928;BME280;51070;52.236;-0.892;2023-03-26T01:13:20;99375.63;;;9.07;87.47
62928;BME280;51070;52.236;-0.892;2023-03-26T01:15:47;99369.04;;;9.04;87.58
62928;BME280;51070;52.236;-0.892;2023-03-26T01:18:16;99369.00;;;9.03;87.74
62928;BME280;51070;52.236;-0.892;2023-03-26T01:20:43;99369.17;;;9.03;87.98
62928;BME280;51070;52.236;-0.892;2023-03-26T01:23:11;99368.81;;;9.01;87.85
62928;BME280;51070;52.236;-0.892;2023-03-26T01:25:39;99366.71;;;8.99;88.11
62928;BME280;51070;52.236;-0.892;2023-03-26T01:28:09;99361.34;;;8.98;88.22
62928;BME280;51070;52.236;-0.892;2023-03-26T01:30:46;99364.59;;;8.96;88.50
62928;BME280;51070;52.236;-0.892;2023-03-26T01:33:22;99362.35;;;8.97;88.63
62928;BME280;51070;52.236;-0.892;2023-03-26T01:36:01;99359.77;;;8.96;88.66
62928;BME280;51070;52.236;-0.892;2023-03-26T01:41:09;99347.02;;;8.97;88.56
62928;BME280;51070;52.236;-0.892;2023-03-26T01:43:46;99344.76;;;8.95;88.63
62928;BME280;51070;52.236;-0.892;2023-03-26T01:46:16;99340.70;;;8.90;88.50
62928;BME280;51070;52.236;-0.892;2023-03-26T01:48:45;99335.27;;;8.84;88.91
62928;BME280;51070;52.236;-0.892;2023-03-26T01:51:13;99335.03;;;8.81;89.26
62928;BME280;51070;52.236;-0.892;2023-03-26T01:53:46;99332.61;;;8.78;89.52
62928;BME280;51070;52.236;-0.892;2023-03-26T01:56:25;99326.73;;;8.77;89.82
62928;BME280;51070;52.236;-0.892;2023-03-26T02:04:33;99315.05;;;8.80;90.14
62928;BME280;51070;52.236;-0.892;2023-03-26T02:10:18;99297.71;;;8.83;89.99
62928;BME280;51070;52.236;-0.892;2023-03-26T02:12:45;99290.61;;;8.82;89.89
62928;BME280;51070;52.236;-0.892;2023-03-26T02:15:12;99284.55;;;8.80;89.72
62928;BME280;51070;52.236;-0.892;2023-03-26T02:17:37;99278.86;;;8.78;89.81
62928;BME280;51070;52.236;-0.892;2023-03-26T02:20:13;99276.58;;;8.76;89.97
62928;BME280;51070;52.236;-0.892;2023-03-26T02:22:41;99277.27;;;8.77;90.01
62928;BME280;51070;52.236;-0.892;2023-03-26T02:25:19;99274.22;;;8.79;90.06
62928;BME280;51070;52.236;-0.892;2023-03-26T02:27:46;99270.61;;;8.80;89.97
62928;BME280;51070;52.236;-0.892;2023-03-26T02:30:15;99273.89;;;8.81;90.13
62928;BME280;51070;52.236;-0.892;2023-03-26T02:32:42;99271.63;;;8.80;90.15
62928;BME280;51070;52.236;-0.892;2023-03-26T02:35:09;99265.77;;;8.80;90.21
62928;BME280;51070;52.236;-0.892;2023-03-26T02:37:35;99264.05;;;8.80;89.95
62928;BME280;51070;52.236;-0.892;2023-03-26T02:40:01;99264.05;;;8.79;90.02
62928;BME280;51070;52.236;-0.892;2023-03-26T02:42:28;99263.02;;;8.79;90.03
62928;BME280;51070;52.236;-0.892;2023-03-26T02:44:54;99260.97;;;8.79;90.09
62928;BME280;51070;52.236;-0.892;2023-03-26T02:47:19;99255.08;;;8.78;90.31
62928;BME280;51070;52.236;-0.892;2023-03-26T02:49:45;99256.48;;;8.79;90.35
62928;BME280;51070;52.236;-0.892;2023-03-26T02:52:11;99253.55;;;8.80;90.34
62928;BME280;51070;52.236;-0.892;2023-03-26T02:54:36;99251.13;;;8.80;90.24
62928;BME280;51070;52.236;-0.892;2023-03-26T02:57:01;99252.01;;;8.79;90.54
62928;BME280;51070;52.236;-0.892;2023-03-26T02:59:27;99256.99;;;8.80;90.68
62928;BME280;51070;52.236;-0.892;2023-03-26T03:01:52;99255.77;;;8.79;90.49
62928;BME280;51070;52.236;-0.892;2023-03-26T03:04:18;99252.90;;;8.72;90.67
62928;BME280;51070;52.236;-0.892;2023-03-26T03:06:44;99251.09;;;8.66;91.07
62928;BME280;51070;52.236;-0.892;2023-03-26T03:09:10;99246.83;;;8.58;91.47
62928;BME280;51070;52.236;-0.892;2023-03-26T03:11:38;99247.94;;;8.52;91.98
62928;BME280;51070;52.236;-0.892;2023-03-26T03:14:05;99244.25;;;8.49;92.21
62928;BME280;51070;52.236;-0.892;2023-03-26T03:16:31;99243.76;;;8.50;92.59
62928;BME280;51070;52.236;-0.892;2023-03-26T03:18:57;99243.11;;;8.52;92.56
62928;BME280;51070;52.236;-0.892;2023-03-26T03:21:27;99242.80;;;8.55;92.88
62928;BME280;51070;52.236;-0.892;2023-03-26T03:23:54;99241.69;;;8.60;93.12
62928;BME280;51070;52.236;-0.892;2023-03-26T03:26:22;99240.14;;;8.60;92.67
62928;BME280;51070;52.236;-0.892;2023-03-26T03:28:52;99239.98;;;8.61;92.57
62928;BME280;51070;52.236;-0.892;2023-03-26T03:31:18;99236.67;;;8.59;92.49
62928;BME280;51070;52.236;-0.892;2023-03-26T03:33:44;99234.27;;;8.59;92.97
62928;BME280;51070;52.236;-0.892;2023-03-26T03:36:14;99234.96;;;8.59;92.60
62928;BME280;51070;52.236;-0.892;2023-03-26T03:38:42;99228.04;;;8.57;92.53
62928;BME280;51070;52.236;-0.892;2023-03-26T03:41:08;99222.71;;;8.58;92.79
62928;BME280;51070;52.236;-0.892;2023-03-26T03:43:33;99223.64;;;8.61;93.15
62928;BME280;51070;52.236;-0.892;2023-03-26T03:45:59;99223.71;;;8.66;93.08
62928;BME280;51070;52.236;-0.892;2023-03-26T03:48:26;99232.95;;;8.73;93.42
62928;BME280;51070;52.236;-0.892;2023-03-26T03:50:53;99226.85;;;8.79;93.06
62928;BME280;51070;52.236;-0.892;2023-03-26T03:53:20;99226.67;;;8.80;92.88
62928;BME280;51070;52.236;-0.892;2023-03-26T03:55:46;99228.41;;;8.81;93.18
62928;BME280;51070;52.236;-0.892;2023-03-26T03:58:20;99226.54;;;8.81;93.51
62928;BME280;51070;52.236;-0.892;2023-03-26T04:00:50;99226.55;;;8.82;93.67
62928;BME280;51070;52.236;-0.892;2023-03-26T04:03:17;99224.62;;;8.81;93.50
62928;BME280;51070;52.236;-0.892;2023-03-26T04:05:44;99217.89;;;8.78;93.83
62928;BME280;51070;52.236;-0.892;2023-03-26T04:08:22;99216.61;;;8.76;93.89
62928;BME280;51070;52.236;-0.892;2023-03-26T04:10:48;99216.09;;;8.75;93.60
62928;BME280;51070;52.236;-0.892;2023-03-26T04:13:15;99211.77;;;8.73;94.00
62928;BME280;51070;52.236;-0.892;2023-03-26T04:15:41;99205.93;;;8.74;94.14
62928;BME280;51070;52.236;-0.892;2023-03-26T04:18:07;99199.73;;;8.75;94.33
62928;BME280;51070;52.236;-0.892;2023-03-26T04:20:37;99196.86;;;8.79;94.71
62928;BME280;51070;52.236;-0.892;2023-03-26T04:23:05;99197.46;;;8.83;94.77
62928;BME280;51070;52.236;-0.892;2023-03-26T04:25:32;99195.08;;;8.87;94.33
62928;BME280;51070;52.236;-0.892;2023-03-26T04:28:02;99188.05;;;8.89;94.09
62928;BME280;51070;52.236;-0.892;2023-03-26T04:30:32;99183.91;;;8.88;94.06
62928;BME280;51070;52.236;-0.892;2023-03-26T04:33:00;99184.05;;;8.87;94.28
62928;BME280;51070;52.236;-0.892;2023-03-26T04:35:31;99182.48;;;8.86;93.98
62928;BME280;51070;52.236;-0.892;2023-03-26T04:38:02;99185.77;;;8.86;94.15
62928;BME280;51070;52.236;-0.892;2023-03-26T04:40:32;99182.84;;;8.86;93.70
62928;BME280;51070;52.236;-0.892;2023-03-26T04:43:02;99187.31;;;8.85;93.71
62928;BME280;51070;52.236;-0.892;2023-03-26T04:45:28;99184.73;;;8.85;93.92
62928;BME280;51070;52.236;-0.892;2023-03-26T04:47:57;99187.83;;;8.86;94.23
62928;BME280;51070;52.236;-0.892;2023-03-26T04:50:23;99186.61;;;8.84;93.91
62928;BME280;51070;52.236;-0.892;2023-03-26T04:52:49;99190.34;;;8.81;93.94
62928;BME280;51070;52.236;-0.892;2023-03-26T04:55:40;99188.74;;;8.77;93.98
62928;BME280;51070;52.236;-0.892;2023-03-26T04:58:08;99191.21;;;8.69;94.00
62928;BME280;51070;52.236;-0.892;2023-03-26T05:00:34;99195.25;;;8.63;94.36
62928;BME280;51070;52.236;-0.892;2023-03-26T05:02:59;99195.85;;;8.58;94.15
62928;BME280;51070;52.236;-0.892;2023-03-26T05:05:26;99200.59;;;8.52;94.43
62928;BME280;51070;52.236;-0.892;2023-03-26T05:07:52;99199.67;;;8.50;94.65
62928;BME280;51070;52.236;-0.892;2023-03-26T05:10:18;99198.60;;;8.48;94.79
62928;BME280;51070;52.236;-0.892;2023-03-26T05:12:45;99198.43;;;8.48;94.97
62928;BME280;51070;52.236;-0.892;2023-03-26T05:15:12;99198.61;;;8.47;95.14
62928;BME280;51070;52.236;-0.892;2023-03-26T05:17:39;99199.85;;;8.50;95.46
62928;BME280;51070;52.236;-0.892;2023-03-26T05:20:14;99201.95;;;8.52;95.16
62928;BME280;51070;52.236;-0.892;2023-03-26T05:22:42;99204.04;;;8.52;95.07
62928;BME280;51070;52.236;-0.892;2023-03-26T05:25:08;99199.39;;;8.54;95.23
62928;BME280;51070;52.236;-0.892;2023-03-26T05:27:33;99200.11;;;8.55;94.81
62928;BME280;51070;52.236;-0.892;2023-03-26T05:30:01;99201.14;;;8.55;94.72
62928;BME280;51070;52.236;-0.892;2023-03-26T05:32:26;99201.30;;;8.55;95.04
62928;BME280;51070;52.236;-0.892;2023-03-26T05:34:52;99203.71;;;8.55;94.77
62928;BME280;51070;52.236;-0.892;2023-03-26T05:37:17;99205.25;;;8.53;94.61
62928;BME280;51070;52.236;-0.892;2023-03-26T05:39:44;99202.84;;;8.53;94.61
62928;BME280;51070;52.236;-0.892;2023-03-26T05:42:12;99208.86;;;8.52;94.86
62928;BME280;51070;52.236;-0.892;2023-03-26T05:44:37;99211.79;;;8.53;94.99
62928;BME280;51070;52.236;-0.892;2023-03-26T05:47:02;99209.38;;;8.54;95.75
62928;BME280;51070;52.236;-0.892;2023-03-26T05:49:28;99216.44;;;8.53;95.76
62928;BME280;51070;52.236;-0.892;2023-03-26T05:51:53;99218.95;;;8.49;95.75
62928;BME280;51070;52.236;-0.892;2023-03-26T05:54:18;99222.53;;;8.46;96.45
62928;BME280;51070;52.236;-0.892;2023-03-26T05:56:44;99226.24;;;8.43;96.69
62928;BME280;51070;52.236;-0.892;2023-03-26T05:59:09;99236.05;;;8.42;97.30
62928;BME280;51070;52.236;-0.892;2023-03-26T06:01:35;99233.77;;;8.39;97.32
62928;BME280;51070;52.236;-0.892;2023-03-26T06:04:00;99241.96;;;8.35;97.45
62928;BME280;51070;52.236;-0.892;2023-03-26T06:06:25;99244.67;;;8.33;98.00
62928;BME280;51070;52.236;-0.892;2023-03-26T06:08:52;99241.57;;;8.33;98.50
62928;BME280;51070;52.236;-0.892;2023-03-26T06:11:18;99242.91;;;8.31;98.52
62928;BME280;51070;52.236;-0.892;2023-03-26T06:13:44;99247.04;;;8.30;98.89
62928;BME280;51070;52.236;-0.892;2023-03-26T06:16:11;99251.41;;;8.27;98.87
62928;BME280;51070;52.236;-0.892;2023-03-26T06:18:38;99254.33;;;8.26;99.55
62928;BME280;51070;52.236;-0.892;2023-03-26T06:21:05;99256.68;;;8.23;99.58
62928;BME280;51070;52.236;-0.892;2023-03-26T06:23:31;99260.05;;;8.19;99.69
62928;BME280;51070;52.236;-0.892;2023-03-26T06:25:57;99266.17;;;8.16;99.83
62928;BME280;51070;52.236;-0.892;2023-03-26T06:28:23;99270.27;;;8.13;99.94
62928;BME280;51070;52.236;-0.892;2023-03-26T06:30:49;99272.35;;;8.14;100.00
62928;BME280;51070;52.236;-0.892;2023-03-26T06:33:15;99272.52;;;8.14;100.00
62928;BME280;51070;52.236;-0.892;2023-03-26T06:35:41;99276.65;;;8.14;100.00
62928;BME280;51070;52.236;-0.892;2023-03-26T06:38:08;99279.58;;;8.14;100.00
62928;BME280;51070;52.236;-0.892;2023-03-26T06:40:34;99287.16;;;8.14;100.00
62928;BME280;51070;52.236;-0.892;2023-03-26T06:43:00;99296.98;;;8.15;100.00
62928;BME280;51070;52.236;-0.892;2023-03-26T06:45:27;99299.89;;;8.15;100.00
62928;BME280;51070;52.236;-0.892;2023-03-26T06:47:52;99303.52;;;8.15;100.00
62928;BME280;51070;52.236;-0.892;2023-03-26T06:50:19;99302.98;;;8.14;100.00
62928;BME280;51070;52.236;-0.892;2023-03-26T06:52:44;99309.51;;;8.13;100.00
62928;BME280;51070;52.236;-0.892;2023-03-26T06:55:10;99310.21;;;8.15;100.00
62928;BME280;51070;52.236;-0.892;2023-03-26T06:57:36;99313.45;;;8.13;100.00
62928;BME280;51070;52.236;-0.892;2023-03-26T07:00:02;99313.45;;;8.13;100.00
62928;BME280;51070;52.236;-0.892;2023-03-26T07:02:28;99315.48;;;8.12;100.00
62928;BME280;51070;52.236;-0.892;2023-03-26T07:04:53;99320.52;;;8.13;100.00
62928;BME280;51070;52.236;-0.892;2023-03-26T07:07:19;99322.61;;;8.16;100.00
62928;BME280;51070;52.236;-0.892;2023-03-26T07:09:46;99326.45;;;8.17;100.00
62928;BME280;51070;52.236;-0.892;2023-03-26T07:12:13;99330.77;;;8.18;100.00
62928;BME280;51070;52.236;-0.892;2023-03-26T07:14:39;99333.35;;;8.19;100.00
62928;BME280;51070;52.236;-0.892;2023-03-26T07:17:05;99338.59;;;8.22;100.00
62928;BME280;51070;52.236;-0.892;2023-03-26T07:19:30;99341.22;;;8.24;100.00
62928;BME280;51070;52.236;-0.892;2023-03-26T07:21:57;99346.21;;;8.25;100.00
62928;BME280;51070;52.236;-0.892;2023-03-26T07:24:23;99350.71;;;8.27;100.00
62928;BME280;51070;52.236;-0.892;2023-03-26T07:32:26;99358.98;;;8.28;100.00
62928;BME280;51070;52.236;-0.892;2023-03-26T07:35:00;99364.50;;;8.28;100.00
62928;BME280;51070;52.236;-0.892;2023-03-26T07:40:39;99371.79;;;8.29;99.72
62928;BME280;51070;52.236;-0.892;2023-03-26T07:45:53;99377.84;;;8.30;99.45
62928;BME280;51070;52.236;-0.892;2023-03-26T07:48:21;99380.82;;;8.33;99.79
62928;BME280;51070;52.236;-0.892;2023-03-26T07:50:53;99383.64;;;8.36;99.58
62928;BME280;51070;52.236;-0.892;2023-03-26T07:53:19;99389.83;;;8.35;99.23
62928;BME280;51070;52.236;-0.892;2023-03-26T08:01:45;99407.82;;;8.25;99.05
62928;BME280;51070;52.236;-0.892;2023-03-26T08:07:17;99418.41;;;8.13;98.86
62928;BME280;51070;52.236;-0.892;2023-03-26T08:15:52;99426.30;;;8.03;99.13
62928;BME280;51070;52.236;-0.892;2023-03-26T08:18:48;99433.98;;;8.01;99.36
62928;BME280;51070;52.236;-0.892;2023-03-26T08:21:22;99441.02;;;8.01;99.68
62928;BME280;51070;52.236;-0.892;2023-03-26T08:24:07;99446.48;;;7.98;99.58
62928;BME280;51070;52.236;-0.892;2023-03-26T08:26:49;99453.31;;;7.96;99.81
62928;BME280;51070;52.236;-0.892;2023-03-26T08:29:37;99462.59;;;7.96;99.87
62928;BME280;51070;52.236;-0.892;2023-03-26T08:32:15;99467.74;;;7.95;99.98
62928;BME280;51070;52.236;-0.892;2023-03-26T08:34:42;99470.36;;;7.96;100.00
62928;BME280;51070;52.236;-0.892;2023-03-26T08:37:08;99474.54;;;7.98;100.00
62928;BME280;51070;52.236;-0.892;2023-03-26T08:39:35;99479.87;;;7.99;100.00
62928;BME280;51070;52.236;-0.892;2023-03-26T08:55:54;99514.12;;;7.99;100.00
62928;BME280;51070;52.236;-0.892;2023-03-26T09:04:09;99527.23;;;8.17;99.97
62928;BME280;51070;52.236;-0.892;2023-03-26T09:19:21;99562.71;;;8.38;97.80
62928;BME280;51070;52.236;-0.892;2023-03-26T09:21:39;99569.59;;;8.46;97.10
62928;BME280;51070;52.236;-0.892;2023-03-26T09:36:03;99611.70;;;8.51;94.63
62928;BME280;51070;52.236;-0.892;2023-03-26T10:09:09;99699.21;;;8.52;91.21
62928;BME280;51070;52.236;-0.892;2023-03-26T10:16:44;99722.94;;;8.71;89.27
62928;BME280;51070;52.236;-0.892;2023-03-26T10:30:33;99743.71;;;9.62;87.70
62928;BME280;51070;52.236;-0.892;2023-03-26T10:33:14;99753.70;;;9.87;86.02
62928;BME280;51070;52.236;-0.892;2023-03-26T10:36:03;99758.86;;;9.95;84.75
62928;BME280;51070;52.236;-0.892;2023-03-26T10:44:38;99787.95;;;10.25;82.64
62928;BME280;51070;52.236;-0.892;2023-03-26T10:55:31;99809.54;;;11.26;77.24
62928;BME280;51070;52.236;-0.892;2023-03-26T10:58:24;99819.18;;;11.13;76.69
62928;BME280;51070;52.236;-0.892;2023-03-26T11:00:54;99826.75;;;10.99;77.33
62928;BME280;51070;52.236;-0.892;2023-03-26T11:03:28;99831.62;;;10.90;77.05
62928;BME280;51070;52.236;-0.892;2023-03-26T11:06:16;99835.56;;;10.88;77.26
62928;BME280;51070;52.236;-0.892;2023-03-26T11:14:26;99842.55;;;10.63;75.21
62928;BME280;51070;52.236;-0.892;2023-03-26T11:19:45;99858.15;;;10.57;75.88
62928;BME280;51070;52.236;-0.892;2023-03-26T11:25:03;99872.75;;;10.52;75.75
62928;BME280;51070;52.236;-0.892;2023-03-26T11:32:59;99894.48;;;10.49;74.75
62928;BME280;51070;52.236;-0.892;2023-03-26T11:35:30;99902.38;;;10.48;75.62
62928;BME280;51070;52.236;-0.892;2023-03-26T11:38:03;99907.09;;;10.50;74.72
62928;BME280;51070;52.236;-0.892;2023-03-26T11:40:40;99913.19;;;10.44;73.68
62928;BME280;51070;52.236;-0.892;2023-03-26T11:43:10;99921.95;;;10.33;74.08
62928;BME280;51070;52.236;-0.892;2023-03-26T11:45:38;99929.01;;;10.24;74.38
62928;BME280;51070;52.236;-0.892;2023-03-26T11:50:46;99935.50;;;10.29;74.17
62928;BME280;51070;52.236;-0.892;2023-03-26T11:53:19;99933.95;;;10.45;74.07
62928;BME280;51070;52.236;-0.892;2023-03-26T11:55:50;99941.33;;;10.68;72.53
62928;BME280;51070;52.236;-0.892;2023-03-26T11:58:28;99946.46;;;11.04;71.26
62928;BME280;51070;52.236;-0.892;2023-03-26T12:00:55;99954.23;;;11.43;70.98
62928;BME280;51070;52.236;-0.892;2023-03-26T12:03:21;99958.27;;;11.56;70.98
62928;BME280;51070;52.236;-0.892;2023-03-26T12:05:49;99966.11;;;11.50;70.64
62928;BME280;51070;52.236;-0.892;2023-03-26T12:08:39;99975.35;;;11.33;68.73
62928;BME280;51070;52.236;-0.892;2023-03-26T12:11:10;99981.05;;;11.14;69.08
62928;BME280;51070;52.236;-0.892;2023-03-26T12:13:49;99987.26;;;11.03;68.94
62928;BME280;51070;52.236;-0.892;2023-03-26T12:16:20;99989.53;;;10.95;68.16
62928;BME280;51070;52.236;-0.892;2023-03-26T12:19:00;99996.19;;;10.91;68.19
62928;BME280;51070;52.236;-0.892;2023-03-26T12:21:28;100000.68;;;11.09;67.50
62928;BME280;51070;52.236;-0.892;2023-03-26T12:24:02;100008.84;;;11.30;66.22
62928;BME280;51070;52.236;-0.892;2023-03-26T12:26:34;100010.42;;;11.71;65.20
62928;BME280;51070;52.236;-0.892;2023-03-26T12:29:12;100019.38;;;12.10;65.89
62928;BME280;51070;52.236;-0.892;2023-03-26T12:31:47;100022.94;;;12.17;63.33
62928;BME280;51070;52.236;-0.892;2023-03-26T12:34:18;100030.88;;;12.04;63.09
62928;BME280;51070;52.236;-0.892;2023-03-26T12:36:51;100043.83;;;11.90;63.51
62928;BME280;51070;52.236;-0.892;2023-03-26T12:39:36;100050.70;;;11.68;63.25
62928;BME280;51070;52.236;-0.892;2023-03-26T12:42:05;100057.81;;;11.40;64.00
62928;BME280;51070;52.236;-0.892;2023-03-26T12:44:50;100067.42;;;11.27;64.34
62928;BME280;51070;52.236;-0.892;2023-03-26T12:47:20;100067.15;;;11.31;63.16
62928;BME280;51070;52.236;-0.892;2023-03-26T12:49:48;100073.42;;;11.43;63.41
62928;BME280;51070;52.236;-0.892;2023-03-26T12:52:38;100073.08;;;11.43;63.02
62928;BME280;51070;52.236;-0.892;2023-03-26T13:01:11;100095.51;;;10.71;62.54
62928;BME280;51070;52.236;-0.892;2023-03-26T13:06:52;100102.23;;;10.55;62.64
62928;BME280;51070;52.236;-0.892;2023-03-26T13:14:52;100116.99;;;10.43;63.07
62928;BME280;51070;52.236;-0.892;2023-03-26T13:23:05;100127.02;;;10.59;62.22
62928;BME280;51070;52.236;-0.892;2023-03-26T13:46:41;100171.48;;;11.16;61.54
62928;BME280;51070;52.236;-0.892;2023-03-26T13:49:23;100176.11;;;11.05;60.41
62928;BME280;51070;52.236;-0.892;2023-03-26T13:54:31;100184.90;;;10.96;60.78
62928;BME280;51070;52.236;-0.892;2023-03-26T13:59:32;100191.86;;;10.90;60.76
62928;BME280;51070;52.236;-0.892;2023-03-26T14:02:07;100196.55;;;10.92;60.36
62928;BME280;51070;52.236;-0.892;2023-03-26T14:04:40;100202.33;;;10.87;59.95
62928;BME280;51070;52.236;-0.892;2023-03-26T14:07:14;100205.89;;;10.83;59.91
62928;BME280;51070;52.236;-0.892;2023-03-26T14:09:49;100210.35;;;10.82;60.52
62928;BME280;51070;52.236;-0.892;2023-03-26T14:18:26;100216.27;;;10.70;59.91
62928;BME280;51070;52.236;-0.892;2023-03-26T14:24:16;100222.13;;;11.30;59.12
62928;BME280;51070;52.236;-0.892;2023-03-26T14:46:48;100272.98;;;10.78;57.60
62928;BME280;51070;52.236;-0.892;2023-03-26T14:54:50;100281.36;;;10.61;57.96
62928;BME280;51070;52.236;-0.892;2023-03-26T15:07:01;100313.27;;;10.32;57.67
62928;BME280;51070;52.236;-0.892;2023-03-26T15:12:26;100323.04;;;10.35;58.43
62928;BME280;51070;52.236;-0.892;2023-03-26T15:37:53;100359.87;;;10.97;55.34
62928;BME280;51070;52.236;-0.892;2023-03-26T15:40:39;100376.96;;;10.75;55.74
62928;BME280;51070;52.236;-0.892;2023-03-26T15:43:12;100387.32;;;10.55;56.27
62928;BME280;51070;52.236;-0.892;2023-03-26T15:45:41;100396.05;;;10.40;56.43
62928;BME280;51070;52.236;-0.892;2023-03-26T16:02:20;100420.27;;;9.95;57.85
62928;BME280;51070;52.236;-0.892;2023-03-26T16:04:55;100425.00;;;9.85;58.11
62928;BME280;51070;52.236;-0.892;2023-03-26T16:10:10;100432.48;;;9.76;58.70
62928;BME280;51070;52.236;-0.892;2023-03-26T16:13:16;100439.55;;;9.76;58.84
62928;BME280;51070;52.236;-0.892;2023-03-26T16:18:41;100449.84;;;9.74;58.75
62928;BME280;51070;52.236;-0.892;2023-03-26T16:26:26;100470.13;;;9.77;59.31
62928;BME280;51070;52.236;-0.892;2023-03-26T16:31:58;100483.72;;;9.76;58.59
62928;BME280;51070;52.236;-0.892;2023-03-26T16:34:54;100486.30;;;9.70;58.43
62928;BME280;51070;52.236;-0.892;2023-03-26T16:48:50;100526.11;;;9.27;58.61
62928;BME280;51070;52.236;-0.892;2023-03-26T16:51:46;100534.38;;;9.17;59.11
62928;BME280;51070;52.236;-0.892;2023-03-26T16:54:35;100544.44;;;9.09;59.55
62928;BME280;51070;52.236;-0.892;2023-03-26T17:00:33;100548.27;;;8.95;60.28
62928;BME280;51070;52.236;-0.892;2023-03-26T17:03:32;100554.83;;;8.91;60.44
62928;BME280;51070;52.236;-0.892;2023-03-26T17:06:03;100562.66;;;8.83;60.63
62928;BME280;51070;52.236;-0.892;2023-03-26T17:17:35;100588.70;;;8.61;62.28
62928;BME280;51070;52.236;-0.892;2023-03-26T17:20:09;100601.86;;;8.54;63.18
62928;BME280;51070;52.236;-0.892;2023-03-26T17:25:32;100612.88;;;8.40;64.32
62928;BME280;51070;52.236;-0.892;2023-03-26T17:28:26;100616.70;;;8.37;64.34
62928;BME280;51070;52.236;-0.892;2023-03-26T17:33:42;100630.52;;;8.30;63.56
62928;BME280;51070;52.236;-0.892;2023-03-26T17:41:01;100650.38;;;8.19;63.17
62928;BME280;51070;52.236;-0.892;2023-03-26T17:43:49;100658.05;;;8.18;63.25
62928;BME280;51070;52.236;-0.892;2023-03-26T17:46:35;100663.19;;;8.17;63.42
62928;BME280;51070;52.236;-0.892;2023-03-26T17:49:15;100668.62;;;8.15;63.64
62928;BME280;51070;52.236;-0.892;2023-03-26T17:52:02;100669.02;;;8.12;63.55
62928;BME280;51070;52.236;-0.892;2023-03-26T17:54:33;100675.69;;;8.07;63.59
62928;BME280;51070;52.236;-0.892;2023-03-26T18:00:05;100680.46;;;8.01;64.03
62928;BME280;51070;52.236;-0.892;2023-03-26T18:02:37;100687.97;;;8.00;64.31
62928;BME280;51070;52.236;-0.892;2023-03-26T18:05:12;100694.89;;;7.96;64.16
62928;BME280;51070;52.236;-0.892;2023-03-26T18:07:49;100703.91;;;7.94;64.01
62928;BME280;51070;52.236;-0.892;2023-03-26T18:16:16;100719.03;;;7.86;64.40
62928;BME280;51070;52.236;-0.892;2023-03-26T18:18:51;100726.73;;;7.85;64.86
62928;BME280;51070;52.236;-0.892;2023-03-26T18:21:37;100737.05;;;7.85;64.87
62928;BME280;51070;52.236;-0.892;2023-03-26T18:24:06;100747.93;;;7.82;65.22
62928;BME280;51070;52.236;-0.892;2023-03-26T18:26:57;100745.39;;;7.71;65.99
62928;BME280;51070;52.236;-0.892;2023-03-26T18:29:31;100754.48;;;7.63;66.93
62928;BME280;51070;52.236;-0.892;2023-03-26T18:31:59;100759.40;;;7.57;67.33
62928;BME280;51070;52.236;-0.892;2023-03-26T18:34:32;100765.30;;;7.50;67.55
62928;BME280;51070;52.236;-0.892;2023-03-26T18:40:13;100775.48;;;7.44;68.20
62928;BME280;51070;52.236;-0.892;2023-03-26T18:48:01;100787.81;;;7.39;69.75
62928;BME280;51070;52.236;-0.892;2023-03-26T18:50:37;100794.57;;;7.40;70.14
62928;BME280;51070;52.236;-0.892;2023-03-26T18:53:06;100795.90;;;7.39;69.74
62928;BME280;51070;52.236;-0.892;2023-03-26T18:55:34;100799.61;;;7.38;69.44
62928;BME280;51070;52.236;-0.892;2023-03-26T18:58:34;100808.31;;;7.33;69.31
62928;BME280;51070;52.236;-0.892;2023-03-26T19:01:03;100810.61;;;7.27;69.44
62928;BME280;51070;52.236;-0.892;2023-03-26T19:03:33;100811.12;;;7.23;69.53
62928;BME280;51070;52.236;-0.892;2023-03-26T19:06:01;100817.92;;;7.21;69.94
62928;BME280;51070;52.236;-0.892;2023-03-26T19:08:30;100819.77;;;7.21;70.24
62928;BME280;51070;52.236;-0.892;2023-03-26T19:10:59;100826.58;;;7.19;70.37
62928;BME280;51070;52.236;-0.892;2023-03-26T19:13:30;100830.44;;;7.17;70.32
62928;BME280;51070;52.236;-0.892;2023-03-26T19:15:57;100827.45;;;7.15;70.22